sensor_id;sensor_type;location;lat;lon;timestamp;pressure;altitude;pressure_sealevel;temperature;humidity
7018;BME280;3549;42.162;24.726;2023-01-31T00:01:14;47851.59;;;-141.97;95.61
7018;BME280;3549;42.162;24.726;2023-01-31T00:03:41;47859.28;;;-141.97;96.00
7018;BME280;3549;42.162;24.726;2023-01-31T00:06:35;47888.13;;;-141.97;95.48
7018;BME280;3549;42.162;24.726;2023-01-31T00:09:02;47838.16;;;-141.97;94.97
7018;BME280;3549;42.162;24.726;2023-01-31T00:11:29;47817.00;;;-141.97;95.36
7018;BME280;3549;42.162;24.726;2023-01-31T00:13:56;47845.84;;;-141.97;95.41
7018;BME280;3549;42.162;24.726;2023-01-31T00:16:22;47811.25;;;-141.97;95.20
7018;BME280;3549;42.162;24.726;2023-01-31T00:18:48;47817.00;;;-141.97;94.47
7018;BME280;3549;42.162;24.726;2023-01-31T00:21:17;47822.78;;;-141.97;95.20
7018;BME280;3549;42.162;24.726;2023-01-31T00:23:47;47857.38;;;-141.97;94.55
7018;BME280;3549;42.162;24.726;2023-01-31T00:28:40;47822.78;;;-141.97;94.24
7018;BME280;3549;42.162;24.726;2023-01-31T00:31:07;47792.03;;;-141.97;93.83
7018;BME280;3549;42.162;24.726;2023-01-31T00:33:33;47782.41;;;-141.97;93.71
7018;BME280;3549;42.162;24.726;2023-01-31T00:36:05;47745.88;;;-141.97;93.71
7018;BME280;3549;42.162;24.726;2023-01-31T00:38:31;47847.75;;;-141.97;93.58
7018;BME280;3549;42.162;24.726;2023-01-31T00:40:57;47842.00;;;-141.97;94.77
7018;BME280;3549;42.162;24.726;2023-01-31T00:43:22;47911.19;;;-141.97;95.24
7018;BME280;3549;42.162;24.726;2023-01-31T00:45:48;47907.34;;;-141.97;95.30
7018;BME280;3549;42.162;24.726;2023-01-31T00:48:13;47824.69;;;-141.97;96.26
7018;BME280;3549;42.162;24.726;2023-01-31T00:50:39;47803.56;;;-141.97;96.73
7018;BME280;3549;42.162;24.726;2023-01-31T00:53:05;47876.59;;;-141.97;95.68
7018;BME280;3549;42.162;24.726;2023-01-31T00:55:31;47834.31;;;-141.97;94.49
7018;BME280;3549;42.162;24.726;2023-01-31T00:57:56;47840.06;;;-141.97;94.61
7018;BME280;3549;42.162;24.726;2023-01-31T01:00:22;47770.88;;;-141.97;94.19
7018;BME280;3549;42.162;24.726;2023-01-31T01:02:47;47830.47;;;-141.97;94.06
7018;BME280;3549;42.162;24.726;2023-01-31T01:05:13;47828.53;;;-141.97;93.43
7018;BME280;3549;42.162;24.726;2023-01-31T01:07:38;47786.25;;;-141.97;93.91
7018;BME280;3549;42.162;24.726;2023-01-31T01:10:05;47843.91;;;-141.97;93.97
7018;BME280;3549;42.162;24.726;2023-01-31T01:12:31;47805.47;;;-141.97;93.95
7018;BME280;3549;42.162;24.726;2023-01-31T01:14:56;47818.94;;;-141.97;94.35
7018;BME280;3549;42.162;24.726;2023-01-31T01:17:22;47834.31;;;-141.97;94.21
7018;BME280;3549;42.162;24.726;2023-01-31T01:19:48;47930.41;;;-141.97;93.99
7018;BME280;3549;42.162;24.726;2023-01-31T01:22:14;47801.63;;;-141.97;93.72
7018;BME280;3549;42.162;24.726;2023-01-31T01:24:44;47966.94;;;-141.97;93.76
7018;BME280;3549;42.162;24.726;2023-01-31T01:27:09;47799.72;;;-141.97;94.26
7018;BME280;3549;42.162;24.726;2023-01-31T01:29:35;47880.44;;;-141.97;94.72
7018;BME280;3549;42.162;24.726;2023-01-31T01:32:01;47895.81;;;-141.97;94.66
7018;BME280;3549;42.162;24.726;2023-01-31T01:34:26;47865.06;;;-141.97;95.35
7018;BME280;3549;42.162;24.726;2023-01-31T01:36:52;47870.81;;;-141.97;95.87
7018;BME280;3549;42.162;24.726;2023-01-31T01:39:17;47855.44;;;-141.97;97.20
7018;BME280;3549;42.162;24.726;2023-01-31T01:41:43;47834.31;;;-141.97;98.10
7018;BME280;3549;42.162;24.726;2023-01-31T01:44:47;47861.22;;;-141.97;98.39
7018;BME280;3549;42.162;24.726;2023-01-31T01:49:56;47828.53;;;-141.97;98.94
7018;BME280;3549;42.162;24.726;2023-01-31T01:52:24;47795.88;;;-141.97;99.33
7018;BME280;3549;42.162;24.726;2023-01-31T01:54:59;47795.88;;;-141.97;99.82
7018;BME280;3549;42.162;24.726;2023-01-31T01:57:34;47851.59;;;-141.97;99.51
7018;BME280;3549;42.162;24.726;2023-01-31T02:00:14;47890.06;;;-141.97;99.14
7018;BME280;3549;42.162;24.726;2023-01-31T02:02:42;47826.63;;;-141.97;99.29
7018;BME280;3549;42.162;24.726;2023-01-31T02:05:08;47938.09;;;-141.97;99.15
7018;BME280;3549;42.162;24.726;2023-01-31T02:07:36;47880.44;;;-141.97;99.58
7018;BME280;3549;42.162;24.726;2023-01-31T02:10:13;47815.09;;;-141.97;99.88
7018;BME280;3549;42.162;24.726;2023-01-31T02:12:40;47826.63;;;-141.97;99.93
7018;BME280;3549;42.162;24.726;2023-01-31T02:15:06;47926.56;;;-141.97;99.35
7018;BME280;3549;42.162;24.726;2023-01-31T02:17:32;47861.22;;;-141.97;98.68
7018;BME280;3549;42.162;24.726;2023-01-31T02:34:08;47865.06;;;-141.97;97.88
7018;BME280;3549;42.162;24.726;2023-01-31T02:42:59;47805.47;;;-141.97;96.72
7018;BME280;3549;42.162;24.726;2023-01-31T02:51:00;47828.53;;;-141.97;94.86
7018;BME280;3549;42.162;24.726;2023-01-31T02:53:39;47855.44;;;-141.97;93.92
7018;BME280;3549;42.162;24.726;2023-01-31T02:56:12;47832.38;;;-141.97;94.23
7018;BME280;3549;42.162;24.726;2023-01-31T02:58:41;47838.16;;;-141.97;94.15
7018;BME280;3549;42.162;24.726;2023-01-31T03:01:15;47916.97;;;-141.97;94.65
7018;BME280;3549;42.162;24.726;2023-01-31T03:03:42;47834.31;;;-141.97;93.95
7018;BME280;3549;42.162;24.726;2023-01-31T03:08:42;47838.16;;;-141.97;93.69
7018;BME280;3549;42.162;24.726;2023-01-31T03:11:08;47851.59;;;-141.97;93.89
7018;BME280;3549;42.162;24.726;2023-01-31T03:16:30;47907.34;;;-141.97;91.46
7018;BME280;3549;42.162;24.726;2023-01-31T03:24:29;47811.25;;;-141.97;90.45
7018;BME280;3549;42.162;24.726;2023-01-31T03:26:57;47795.88;;;-141.97;90.81
7018;BME280;3549;42.162;24.726;2023-01-31T03:29:26;47830.47;;;-141.97;90.65
7018;BME280;3549;42.162;24.726;2023-01-31T03:31:57;47834.31;;;-141.97;90.71
7018;BME280;3549;42.162;24.726;2023-01-31T03:34:23;47792.03;;;-141.97;91.69
7018;BME280;3549;42.162;24.726;2023-01-31T03:36:56;47792.03;;;-141.97;91.79
7018;BME280;3549;42.162;24.726;2023-01-31T03:42:05;47863.13;;;-141.97;92.30
7018;BME280;3549;42.162;24.726;2023-01-31T03:44:35;47834.31;;;-141.97;91.95
7018;BME280;3549;42.162;24.726;2023-01-31T03:47:08;47851.59;;;-141.97;91.51
7018;BME280;3549;42.162;24.726;2023-01-31T03:49:37;47853.53;;;-141.97;91.91
7018;BME280;3549;42.162;24.726;2023-01-31T03:52:06;47815.09;;;-141.97;91.55
7018;BME280;3549;42.162;24.726;2023-01-31T03:54:38;47842.00;;;-141.97;90.97
7018;BME280;3549;42.162;24.726;2023-01-31T03:57:17;47834.31;;;-141.97;90.07
7018;BME280;3549;42.162;24.726;2023-01-31T03:59:49;47876.59;;;-141.97;89.64
7018;BME280;3549;42.162;24.726;2023-01-31T04:02:22;47832.38;;;-141.97;89.77
7018;BME280;3549;42.162;24.726;2023-01-31T04:05:09;47770.88;;;-141.97;89.02
7018;BME280;3549;42.162;24.726;2023-01-31T04:07:35;47838.16;;;-141.97;88.11
7018;BME280;3549;42.162;24.726;2023-01-31T04:10:03;47936.19;;;-141.97;87.54
7018;BME280;3549;42.162;24.726;2023-01-31T04:12:34;47824.69;;;-141.97;87.95
7018;BME280;3549;42.162;24.726;2023-01-31T04:15:00;47832.38;;;-141.97;87.81
7018;BME280;3549;42.162;24.726;2023-01-31T04:17:25;47840.06;;;-141.97;87.90
7018;BME280;3549;42.162;24.726;2023-01-31T04:19:51;47780.47;;;-141.97;88.51
7018;BME280;3549;42.162;24.726;2023-01-31T04:22:16;47776.63;;;-141.97;89.30
7018;BME280;3549;42.162;24.726;2023-01-31T04:24:41;47728.59;;;-141.97;89.26
7018;BME280;3549;42.162;24.726;2023-01-31T04:27:07;47749.72;;;-141.97;89.15
7018;BME280;3549;42.162;24.726;2023-01-31T04:29:32;47792.03;;;-141.97;88.83
7018;BME280;3549;42.162;24.726;2023-01-31T04:31:58;47895.81;;;-141.97;89.42
7018;BME280;3549;42.162;24.726;2023-01-31T04:34:23;47863.13;;;-141.97;90.15
7018;BME280;3549;42.162;24.726;2023-01-31T04:36:48;47880.44;;;-141.97;90.24
7018;BME280;3549;42.162;24.726;2023-01-31T04:39:14;47761.25;;;-141.97;90.81
7018;BME280;3549;42.162;24.726;2023-01-31T04:41:40;47763.19;;;-141.97;91.43
7018;BME280;3549;42.162;24.726;2023-01-31T04:44:05;47826.63;;;-141.97;91.35
7018;BME280;3549;42.162;24.726;2023-01-31T04:46:31;47853.53;;;-141.97;92.38
7018;BME280;3549;42.162;24.726;2023-01-31T04:48:56;47795.88;;;-141.97;92.52
7018;BME280;3549;42.162;24.726;2023-01-31T04:51:21;47699.75;;;-141.97;92.82
7018;BME280;3549;42.162;24.726;2023-01-31T04:53:47;47713.22;;;-141.97;93.43
7018;BME280;3549;42.162;24.726;2023-01-31T04:56:13;47838.16;;;-141.97;93.43
7018;BME280;3549;42.162;24.726;2023-01-31T04:58:38;47807.41;;;-141.97;93.36
7018;BME280;3549;42.162;24.726;2023-01-31T05:01:06;47747.81;;;-141.97;93.83
7018;BME280;3549;42.162;24.726;2023-01-31T05:03:31;47849.69;;;-141.97;93.78
7018;BME280;3549;42.162;24.726;2023-01-31T05:05:56;47790.09;;;-141.97;93.75
7018;BME280;3549;42.162;24.726;2023-01-31T05:08:22;47863.13;;;-141.97;93.01
7018;BME280;3549;42.162;24.726;2023-01-31T05:10:47;47755.50;;;-141.97;93.34
7018;BME280;3549;42.162;24.726;2023-01-31T05:13:13;47834.31;;;-141.97;93.48
7018;BME280;3549;42.162;24.726;2023-01-31T05:15:39;47782.41;;;-141.97;94.11
7018;BME280;3549;42.162;24.726;2023-01-31T05:18:04;47797.78;;;-141.97;94.88
7018;BME280;3549;42.162;24.726;2023-01-31T05:20:32;47815.09;;;-141.97;95.45
7018;BME280;3549;42.162;24.726;2023-01-31T05:23:00;47761.25;;;-141.97;95.93
7018;BME280;3549;42.162;24.726;2023-01-31T05:25:26;47792.03;;;-141.97;96.03
7018;BME280;3549;42.162;24.726;2023-01-31T05:27:52;47718.97;;;-141.97;96.38
7018;BME280;3549;42.162;24.726;2023-01-31T05:30:17;47851.59;;;-141.97;96.63
7018;BME280;3549;42.162;24.726;2023-01-31T05:32:43;47891.97;;;-141.97;96.38
7018;BME280;3549;42.162;24.726;2023-01-31T05:35:11;47803.56;;;-141.97;96.58
7018;BME280;3549;42.162;24.726;2023-01-31T05:37:37;47895.81;;;-141.97;96.80
7018;BME280;3549;42.162;24.726;2023-01-31T05:40:02;47853.53;;;-141.97;96.92
7018;BME280;3549;42.162;24.726;2023-01-31T05:42:28;47799.72;;;-141.97;96.03
7018;BME280;3549;42.162;24.726;2023-01-31T05:44:53;47870.81;;;-141.97;95.56
7018;BME280;3549;42.162;24.726;2023-01-31T05:47:18;47834.31;;;-141.97;95.58
7018;BME280;3549;42.162;24.726;2023-01-31T05:49:44;47768.94;;;-141.97;95.21
7018;BME280;3549;42.162;24.726;2023-01-31T05:52:09;47888.13;;;-141.97;95.22
7018;BME280;3549;42.162;24.726;2023-01-31T05:54:34;47784.34;;;-141.97;95.84
7018;BME280;3549;42.162;24.726;2023-01-31T05:57:00;47863.13;;;-141.97;96.52
7018;BME280;3549;42.162;24.726;2023-01-31T05:59:25;47818.94;;;-141.97;97.17
7018;BME280;3549;42.162;24.726;2023-01-31T06:01:51;47811.25;;;-141.97;97.90
7018;BME280;3549;42.162;24.726;2023-01-31T06:04:16;47838.16;;;-141.97;98.38
7018;BME280;3549;42.162;24.726;2023-01-31T06:06:42;47807.41;;;-141.97;98.60
7018;BME280;3549;42.162;24.726;2023-01-31T06:09:08;47767.03;;;-141.97;98.11
7018;BME280;3549;42.162;24.726;2023-01-31T06:11:34;47807.41;;;-141.97;98.00
7018;BME280;3549;42.162;24.726;2023-01-31T06:13:59;47736.28;;;-141.97;97.85
7018;BME280;3549;42.162;24.726;2023-01-31T06:16:25;47792.03;;;-141.97;98.25
7018;BME280;3549;42.162;24.726;2023-01-31T06:18:50;47749.72;;;-141.97;98.67
7018;BME280;3549;42.162;24.726;2023-01-31T06:21:16;47847.75;;;-141.97;99.09
7018;BME280;3549;42.162;24.726;2023-01-31T06:23:41;47878.53;;;-141.97;99.93
7018;BME280;3549;42.162;24.726;2023-01-31T06:26:11;47818.94;;;-141.97;99.48
7018;BME280;3549;42.162;24.726;2023-01-31T06:28:36;47805.47;;;-141.97;98.92
7018;BME280;3549;42.162;24.726;2023-01-31T06:31:09;47801.63;;;-141.97;98.01
7018;BME280;3549;42.162;24.726;2023-01-31T06:33:35;47740.13;;;-141.97;97.57
7018;BME280;3549;42.162;24.726;2023-01-31T06:36:00;47790.09;;;-141.97;97.02
7018;BME280;3549;42.162;24.726;2023-01-31T06:38:27;47861.22;;;-141.97;96.84
7018;BME280;3549;42.162;24.726;2023-01-31T06:40:53;47828.53;;;-141.97;96.37
7018;BME280;3549;42.162;24.726;2023-01-31T06:43:18;47845.84;;;-141.97;95.77
7018;BME280;3549;42.162;24.726;2023-01-31T06:45:44;47845.84;;;-141.97;95.62
7018;BME280;3549;42.162;24.726;2023-01-31T06:48:12;47734.34;;;-141.97;95.61
7018;BME280;3549;42.162;24.726;2023-01-31T06:50:37;47803.56;;;-141.97;95.44
7018;BME280;3549;42.162;24.726;2023-01-31T06:53:03;47884.28;;;-141.97;95.51
7018;BME280;3549;42.162;24.726;2023-01-31T06:55:28;47893.91;;;-141.97;96.16
7018;BME280;3549;42.162;24.726;2023-01-31T06:57:54;47830.47;;;-141.97;96.14
7018;BME280;3549;42.162;24.726;2023-01-31T07:00:22;47851.59;;;-141.97;95.91
7018;BME280;3549;42.162;24.726;2023-01-31T07:02:50;47811.25;;;-141.97;95.95
7018;BME280;3549;42.162;24.726;2023-01-31T07:05:16;47830.47;;;-141.97;96.03
7018;BME280;3549;42.162;24.726;2023-01-31T07:07:42;47776.63;;;-141.97;96.43
7018;BME280;3549;42.162;24.726;2023-01-31T07:10:09;47776.63;;;-141.97;97.21
7018;BME280;3549;42.162;24.726;2023-01-31T07:12:35;47820.84;;;-141.97;96.53
7018;BME280;3549;42.162;24.726;2023-01-31T07:15:00;47795.88;;;-141.97;97.21
7018;BME280;3549;42.162;24.726;2023-01-31T07:17:26;47851.59;;;-141.97;97.02
7018;BME280;3549;42.162;24.726;2023-01-31T07:19:51;47838.16;;;-141.97;96.89
7018;BME280;3549;42.162;24.726;2023-01-31T07:22:17;47859.28;;;-141.97;97.53
7018;BME280;3549;42.162;24.726;2023-01-31T07:24:42;47849.69;;;-141.97;97.10
7018;BME280;3549;42.162;24.726;2023-01-31T07:27:08;47855.44;;;-141.97;98.17
7018;BME280;3549;42.162;24.726;2023-01-31T07:29:33;47876.59;;;-141.97;97.91
7018;BME280;3549;42.162;24.726;2023-01-31T07:31:58;47830.47;;;-141.97;97.36
7018;BME280;3549;42.162;24.726;2023-01-31T07:34:24;47811.25;;;-141.97;97.27
7018;BME280;3549;42.162;24.726;2023-01-31T07:36:49;47732.44;;;-141.97;97.06
7018;BME280;3549;42.162;24.726;2023-01-31T07:39:15;47847.75;;;-141.97;97.00
7018;BME280;3549;42.162;24.726;2023-01-31T07:41:41;47826.63;;;-141.97;96.95
7018;BME280;3549;42.162;24.726;2023-01-31T07:44:07;47826.63;;;-141.97;96.43
7018;BME280;3549;42.162;24.726;2023-01-31T07:46:35;47788.19;;;-141.97;96.23
7018;BME280;3549;42.162;24.726;2023-01-31T07:49:00;47782.41;;;-141.97;95.90
7018;BME280;3549;42.162;24.726;2023-01-31T07:51:26;47788.19;;;-141.97;96.07
7018;BME280;3549;42.162;24.726;2023-01-31T07:53:51;47757.41;;;-141.97;95.63
7018;BME280;3549;42.162;24.726;2023-01-31T07:56:19;47820.84;;;-141.97;94.80
7018;BME280;3549;42.162;24.726;2023-01-31T07:58:46;47834.31;;;-141.97;94.56
7018;BME280;3549;42.162;24.726;2023-01-31T08:01:23;47761.25;;;-141.97;94.54
7018;BME280;3549;42.162;24.726;2023-01-31T08:04:09;47826.63;;;-141.97;94.26
7018;BME280;3549;42.162;24.726;2023-01-31T08:06:36;47857.38;;;-141.97;94.06
7018;BME280;3549;42.162;24.726;2023-01-31T08:09:02;47742.03;;;-141.97;94.09
7018;BME280;3549;42.162;24.726;2023-01-31T08:11:27;47870.81;;;-141.97;94.15
7018;BME280;3549;42.162;24.726;2023-01-31T08:13:53;47849.69;;;-141.97;94.26
7018;BME280;3549;42.162;24.726;2023-01-31T08:16:19;47868.91;;;-141.97;94.60
7018;BME280;3549;42.162;24.726;2023-01-31T08:18:46;47843.91;;;-141.97;94.47
7018;BME280;3549;42.162;24.726;2023-01-31T08:21:11;47915.03;;;-141.97;94.71
7018;BME280;3549;42.162;24.726;2023-01-31T08:23:37;47899.66;;;-141.97;94.23
7018;BME280;3549;42.162;24.726;2023-01-31T08:26:07;47928.50;;;-141.97;94.11
7018;BME280;3549;42.162;24.726;2023-01-31T08:28:35;47872.75;;;-141.97;93.68
7018;BME280;3549;42.162;24.726;2023-01-31T08:31:00;47872.75;;;-141.97;94.28
7018;BME280;3549;42.162;24.726;2023-01-31T08:33:26;47732.44;;;-141.97;93.88
7018;BME280;3549;42.162;24.726;2023-01-31T08:35:51;47795.88;;;-141.97;93.48
7018;BME280;3549;42.162;24.726;2023-01-31T08:38:17;47842.00;;;-141.97;93.66
7018;BME280;3549;42.162;24.726;2023-01-31T08:40:42;47759.34;;;-141.97;93.47
7018;BME280;3549;42.162;24.726;2023-01-31T08:43:08;47865.06;;;-141.97;93.26
7018;BME280;3549;42.162;24.726;2023-01-31T08:45:34;47815.09;;;-141.97;93.34
7018;BME280;3549;42.162;24.726;2023-01-31T08:48:00;47824.69;;;-141.97;92.52
7018;BME280;3549;42.162;24.726;2023-01-31T08:50:28;47859.28;;;-141.97;92.89
7018;BME280;3549;42.162;24.726;2023-01-31T08:52:56;47853.53;;;-141.97;91.99
7018;BME280;3549;42.162;24.726;2023-01-31T08:55:22;47726.66;;;-141.97;91.80
7018;BME280;3549;42.162;24.726;2023-01-31T08:57:49;47761.25;;;-141.97;91.66
7018;BME280;3549;42.162;24.726;2023-01-31T09:00:15;47815.09;;;-141.97;91.78
7018;BME280;3549;42.162;24.726;2023-01-31T09:02:41;47930.41;;;-141.97;91.26
7018;BME280;3549;42.162;24.726;2023-01-31T09:05:07;47697.84;;;-141.97;91.19
7018;BME280;3549;42.162;24.726;2023-01-31T09:07:33;47768.94;;;-141.97;91.27
7018;BME280;3549;42.162;24.726;2023-01-31T09:09:59;47680.53;;;-141.97;90.88
7018;BME280;3549;42.162;24.726;2023-01-31T09:12:24;47740.13;;;-141.97;90.16
7018;BME280;3549;42.162;24.726;2023-01-31T09:14:50;47788.19;;;-141.97;88.68
7018;BME280;3549;42.162;24.726;2023-01-31T09:17:16;47768.94;;;-141.97;87.58
7018;BME280;3549;42.162;24.726;2023-01-31T09:19:42;47872.75;;;-141.97;86.48
7018;BME280;3549;42.162;24.726;2023-01-31T09:22:07;47911.19;;;-141.97;86.23
7018;BME280;3549;42.162;24.726;2023-01-31T09:24:33;47843.91;;;-141.97;85.06
7018;BME280;3549;42.162;24.726;2023-01-31T09:26:58;47951.56;;;-141.97;86.10
7018;BME280;3549;42.162;24.726;2023-01-31T09:29:24;47822.78;;;-141.97;84.42
7018;BME280;3549;42.162;24.726;2023-01-31T09:31:50;47792.03;;;-141.97;85.50
7018;BME280;3549;42.162;24.726;2023-01-31T09:34:16;47778.56;;;-141.97;84.72
7018;BME280;3549;42.162;24.726;2023-01-31T09:36:41;47872.75;;;-141.97;86.53
7018;BME280;3549;42.162;24.726;2023-01-31T09:39:10;47801.63;;;-141.97;86.07
7018;BME280;3549;42.162;24.726;2023-01-31T09:41:38;47830.47;;;-141.97;86.34
7018;BME280;3549;42.162;24.726;2023-01-31T09:44:22;47830.47;;;-141.97;85.40
7018;BME280;3549;42.162;24.726;2023-01-31T09:47:15;47842.00;;;-141.97;84.98
7018;BME280;3549;42.162;24.726;2023-01-31T09:49:55;47840.06;;;-141.97;85.93
7018;BME280;3549;42.162;24.726;2023-01-31T09:52:22;47830.47;;;-141.97;83.31
7018;BME280;3549;42.162;24.726;2023-01-31T09:54:48;47792.03;;;-141.97;50.29
7018;BME280;3549;42.162;24.726;2023-01-31T09:57:49;47817.00;;;-141.97;48.73
7018;BME280;3549;42.162;24.726;2023-01-31T10:00:30;47768.94;;;-141.97;48.78
7018;BME280;3549;42.162;24.726;2023-01-31T10:03:09;47828.53;;;-141.97;48.12
7018;BME280;3549;42.162;24.726;2023-01-31T10:11:05;47941.94;;;-141.97;45.27
7018;BME280;3549;42.162;24.726;2023-01-31T10:13:42;47842.00;;;-141.97;45.88
7018;BME280;3549;42.162;24.726;2023-01-31T10:16:25;47822.78;;;-141.97;46.16
7018;BME280;3549;42.162;24.726;2023-01-31T10:18:58;47830.47;;;-141.97;45.87
7018;BME280;3549;42.162;24.726;2023-01-31T10:21:29;47828.53;;;-141.97;45.74
7018;BME280;3549;42.162;24.726;2023-01-31T10:24:04;47922.72;;;-141.97;46.79
7018;BME280;3549;42.162;24.726;2023-01-31T10:26:36;47824.69;;;-141.97;47.08
7018;BME280;3549;42.162;24.726;2023-01-31T10:29:27;47818.94;;;-141.97;46.18
7018;BME280;3549;42.162;24.726;2023-01-31T10:32:03;47863.13;;;-141.97;45.92
7018;BME280;3549;42.162;24.726;2023-01-31T10:34:34;47813.16;;;-141.97;46.33
7018;BME280;3549;42.162;24.726;2023-01-31T10:40:13;47847.75;;;-141.97;46.50
7018;BME280;3549;42.162;24.726;2023-01-31T10:42:41;47749.72;;;-141.97;45.80
7018;BME280;3549;42.162;24.726;2023-01-31T10:45:17;47809.31;;;-141.97;47.14
7018;BME280;3549;42.162;24.726;2023-01-31T10:47:51;47845.84;;;-141.97;47.14
7018;BME280;3549;42.162;24.726;2023-01-31T10:58:25;47834.31;;;-141.97;48.78
7018;BME280;3549;42.162;24.726;2023-01-31T11:00:51;47905.44;;;-141.97;48.28
7018;BME280;3549;42.162;24.726;2023-01-31T11:03:17;47830.47;;;-141.97;47.98
7018;BME280;3549;42.162;24.726;2023-01-31T11:05:48;47826.63;;;-141.97;48.12
7018;BME280;3549;42.162;24.726;2023-01-31T11:08:39;47820.84;;;-141.97;48.38
7018;BME280;3549;42.162;24.726;2023-01-31T11:11:09;47842.00;;;-141.97;48.74
7018;BME280;3549;42.162;24.726;2023-01-31T11:13:35;47784.34;;;-141.97;49.48
7018;BME280;3549;42.162;24.726;2023-01-31T11:16:02;47784.34;;;-141.97;49.54
7018;BME280;3549;42.162;24.726;2023-01-31T11:18:34;47830.47;;;-141.97;48.64
7018;BME280;3549;42.162;24.726;2023-01-31T11:21:02;47880.44;;;-141.97;48.00
7018;BME280;3549;42.162;24.726;2023-01-31T11:23:30;47815.09;;;-141.97;48.72
7018;BME280;3549;42.162;24.726;2023-01-31T11:25:58;47863.13;;;-141.97;49.60
7018;BME280;3549;42.162;24.726;2023-01-31T11:28:38;47788.19;;;-141.97;49.65
7018;BME280;3549;42.162;24.726;2023-01-31T11:31:19;47792.03;;;-141.97;48.86
7018;BME280;3549;42.162;24.726;2023-01-31T11:33:58;47832.38;;;-141.97;48.33
7018;BME280;3549;42.162;24.726;2023-01-31T11:36:23;47724.75;;;-141.97;47.89
7018;BME280;3549;42.162;24.726;2023-01-31T11:38:51;47818.94;;;-141.97;48.96
7018;BME280;3549;42.162;24.726;2023-01-31T11:41:35;47832.38;;;-141.97;49.37
7018;BME280;3549;42.162;24.726;2023-01-31T11:44:15;47818.94;;;-141.97;48.87
7018;BME280;3549;42.162;24.726;2023-01-31T11:46:54;47832.38;;;-141.97;49.68
7018;BME280;3549;42.162;24.726;2023-01-31T11:51:48;47786.25;;;-141.97;49.87
7018;BME280;3549;42.162;24.726;2023-01-31T11:54:20;47792.03;;;-141.97;49.94
7018;BME280;3549;42.162;24.726;2023-01-31T11:56:47;47820.84;;;-141.97;49.23
7018;BME280;3549;42.162;24.726;2023-01-31T11:59:18;47797.78;;;-141.97;49.80
7018;BME280;3549;42.162;24.726;2023-01-31T12:01:50;47830.47;;;-141.97;50.52
7018;BME280;3549;42.162;24.726;2023-01-31T12:04:20;47836.22;;;-141.97;50.66
7018;BME280;3549;42.162;24.726;2023-01-31T12:07:00;47815.09;;;-141.97;50.32
7018;BME280;3549;42.162;24.726;2023-01-31T12:09:29;47809.31;;;-141.97;50.42
7018;BME280;3549;42.162;24.726;2023-01-31T12:11:58;47826.63;;;-141.97;50.00
7018;BME280;3549;42.162;24.726;2023-01-31T12:14:35;47853.53;;;-141.97;50.32
7018;BME280;3549;42.162;24.726;2023-01-31T12:17:01;47793.94;;;-141.97;50.46
7018;BME280;3549;42.162;24.726;2023-01-31T12:19:38;47915.03;;;-141.97;50.79
7018;BME280;3549;42.162;24.726;2023-01-31T12:22:22;47811.25;;;-141.97;51.17
7018;BME280;3549;42.162;24.726;2023-01-31T12:27:38;47813.16;;;-141.97;50.95
7018;BME280;3549;42.162;24.726;2023-01-31T12:36:25;47799.72;;;-141.97;50.82
7018;BME280;3549;42.162;24.726;2023-01-31T12:41:59;47801.63;;;-141.97;50.98
7018;BME280;3549;42.162;24.726;2023-01-31T12:44:47;47847.75;;;-141.97;51.20
7018;BME280;3549;42.162;24.726;2023-01-31T12:56:17;47818.94;;;-141.97;54.07
7018;BME280;3549;42.162;24.726;2023-01-31T13:07:21;47811.25;;;-141.97;60.55
7018;BME280;3549;42.162;24.726;2023-01-31T13:09:51;47909.28;;;-141.97;62.52
7018;BME280;3549;42.162;24.726;2023-01-31T13:12:20;47742.03;;;-141.97;63.27
7018;BME280;3549;42.162;24.726;2023-01-31T13:14:57;47772.78;;;-141.97;68.42
7018;BME280;3549;42.162;24.726;2023-01-31T13:17:28;47817.00;;;-141.97;69.63
7018;BME280;3549;42.162;24.726;2023-01-31T13:20:00;47734.34;;;-141.97;68.08
7018;BME280;3549;42.162;24.726;2023-01-31T13:22:34;47842.00;;;-141.97;67.58
7018;BME280;3549;42.162;24.726;2023-01-31T13:25:19;47780.47;;;-141.97;65.71
7018;BME280;3549;42.162;24.726;2023-01-31T13:27:53;47851.59;;;-141.97;65.44
7018;BME280;3549;42.162;24.726;2023-01-31T13:30:42;47830.47;;;-141.97;65.75
7018;BME280;3549;42.162;24.726;2023-01-31T13:33:22;47790.09;;;-141.97;62.15
7018;BME280;3549;42.162;24.726;2023-01-31T13:36:24;47809.31;;;-141.97;61.08
7018;BME280;3549;42.162;24.726;2023-01-31T13:38:52;47828.53;;;-141.97;59.66
7018;BME280;3549;42.162;24.726;2023-01-31T13:41:28;47824.69;;;-141.97;59.16
7018;BME280;3549;42.162;24.726;2023-01-31T13:43:55;47842.00;;;-141.97;58.03
7018;BME280;3549;42.162;24.726;2023-01-31T13:46:37;47757.41;;;-141.97;57.09
7018;BME280;3549;42.162;24.726;2023-01-31T13:49:13;47811.25;;;-141.97;56.81
7018;BME280;3549;42.162;24.726;2023-01-31T13:51:45;47830.47;;;-141.97;57.46
7018;BME280;3549;42.162;24.726;2023-01-31T13:54:20;47845.84;;;-141.97;58.12
7018;BME280;3549;42.162;24.726;2023-01-31T13:56:51;47838.16;;;-141.97;58.09
7018;BME280;3549;42.162;24.726;2023-01-31T13:59:24;47851.59;;;-141.97;58.33
7018;BME280;3549;42.162;24.726;2023-01-31T14:01:51;47882.38;;;-141.97;57.98
7018;BME280;3549;42.162;24.726;2023-01-31T14:04:24;47815.09;;;-141.97;58.62
7018;BME280;3549;42.162;24.726;2023-01-31T14:11:54;47828.53;;;-141.97;57.90
7018;BME280;3549;42.162;24.726;2023-01-31T14:25:05;47822.78;;;-141.97;58.67
7018;BME280;3549;42.162;24.726;2023-01-31T14:27:59;47849.69;;;-141.97;59.51
7018;BME280;3549;42.162;24.726;2023-01-31T14:30:35;47818.94;;;-141.97;59.89
7018;BME280;3549;42.162;24.726;2023-01-31T14:33:16;47878.53;;;-141.97;59.84
7018;BME280;3549;42.162;24.726;2023-01-31T14:41:32;47820.84;;;-141.97;59.75
7018;BME280;3549;42.162;24.726;2023-01-31T14:49:54;47868.91;;;-141.97;60.49
7018;BME280;3549;42.162;24.726;2023-01-31T14:52:39;47832.38;;;-141.97;60.77
7018;BME280;3549;42.162;24.726;2023-01-31T14:58:12;47828.53;;;-141.97;62.17
7018;BME280;3549;42.162;24.726;2023-01-31T15:00:49;47784.34;;;-141.97;62.12
7018;BME280;3549;42.162;24.726;2023-01-31T15:05:44;47834.31;;;-141.97;62.47
7018;BME280;3549;42.162;24.726;2023-01-31T15:10:58;47818.94;;;-141.97;62.87